sensor_id;sensor_type;location;lat;lon;timestamp;temperature;humidity
22635;DHT22;11484;50.858;4.384;2022-11-20T00:01:53;5.90;99.90
22635;DHT22;11484;50.858;4.384;2022-11-20T00:04:19;5.90;99.90
22635;DHT22;11484;50.858;4.384;2022-11-20T00:06:45;5.90;99.90
22635;DHT22;11484;50.858;4.384;2022-11-20T00:09:12;6.00;99.90
22635;DHT22;11484;50.858;4.384;2022-11-20T00:11:37;6.10;99.90
22635;DHT22;11484;50.858;4.384;2022-11-20T00:14:03;6.10;99.90
22635;DHT22;11484;50.858;4.384;2022-11-20T00:16:31;6.20;99.90
22635;DHT22;11484;50.858;4.384;2022-11-20T00:18:57;6.30;99.90
22635;DHT22;11484;50.858;4.384;2022-11-20T00:21:25;6.40;99.90
22635;DHT22;11484;50.858;4.384;2022-11-20T00:23:53;6.30;99.90
22635;DHT22;11484;50.858;4.384;2022-11-20T00:26:20;6.40;99.90
22635;DHT22;11484;50.858;4.384;2022-11-20T00:28:58;6.30;99.90
22635;DHT22;11484;50.858;4.384;2022-11-20T00:31:25;6.20;99.90
22635;DHT22;11484;50.858;4.384;2022-11-20T00:33:51;6.30;99.90
22635;DHT22;11484;50.858;4.384;2022-11-20T00:36:22;6.20;99.90
22635;DHT22;11484;50.858;4.384;2022-11-20T00:38:53;6.20;99.90
22635;DHT22;11484;50.858;4.384;2022-11-20T00:41:19;6.10;99.90
22635;DHT22;11484;50.858;4.384;2022-11-20T00:43:45;6.10;99.90
22635;DHT22;11484;50.858;4.384;2022-11-20T00:46:14;6.00;99.90
22635;DHT22;11484;50.858;4.384;2022-11-20T00:48:40;6.00;99.90
22635;DHT22;11484;50.858;4.384;2022-11-20T00:51:06;5.90;99.90
22635;DHT22;11484;50.858;4.384;2022-11-20T00:53:32;5.70;99.90
22635;DHT22;11484;50.858;4.384;2022-11-20T00:56:00;5.70;99.90
22635;DHT22;11484;50.858;4.384;2022-11-20T00:58:35;5.60;99.90
22635;DHT22;11484;50.858;4.384;2022-11-20T01:03:39;5.70;99.90
22635;DHT22;11484;50.858;4.384;2022-11-20T01:06:08;5.80;99.90
22635;DHT22;11484;50.858;4.384;2022-11-20T01:08:36;5.90;99.90
22635;DHT22;11484;50.858;4.384;2022-11-20T01:11:26;6.00;99.90
22635;DHT22;11484;50.858;4.384;2022-11-20T01:13:52;6.00;99.90
22635;DHT22;11484;50.858;4.384;2022-11-20T01:16:24;5.90;99.90
22635;DHT22;11484;50.858;4.384;2022-11-20T01:18:52;5.70;99.90
22635;DHT22;11484;50.858;4.384;2022-11-20T01:21:19;5.70;99.90
22635;DHT22;11484;50.858;4.384;2022-11-20T01:23:47;5.80;99.90
22635;DHT22;11484;50.858;4.384;2022-11-20T01:26:15;6.00;99.90
22635;DHT22;11484;50.858;4.384;2022-11-20T01:28:42;6.10;99.90
22635;DHT22;11484;50.858;4.384;2022-11-20T01:31:17;6.10;99.90
22635;DHT22;11484;50.858;4.384;2022-11-20T01:33:44;6.20;99.90
22635;DHT22;11484;50.858;4.384;2022-11-20T01:36:11;6.10;99.90
22635;DHT22;11484;50.858;4.384;2022-11-20T01:38:38;6.10;99.90
22635;DHT22;11484;50.858;4.384;2022-11-20T01:41:04;6.20;99.90
22635;DHT22;11484;50.858;4.384;2022-11-20T01:43:30;6.20;99.90
22635;DHT22;11484;50.858;4.384;2022-11-20T01:46:02;6.30;99.90
22635;DHT22;11484;50.858;4.384;2022-11-20T01:48:56;6.30;99.90
22635;DHT22;11484;50.858;4.384;2022-11-20T01:54:02;6.40;99.90
22635;DHT22;11484;50.858;4.384;2022-11-20T01:56:32;6.50;99.90
22635;DHT22;11484;50.858;4.384;2022-11-20T01:59:00;6.50;99.90
22635;DHT22;11484;50.858;4.384;2022-11-20T02:01:34;6.60;99.90
22635;DHT22;11484;50.858;4.384;2022-11-20T02:04:00;6.70;99.90
22635;DHT22;11484;50.858;4.384;2022-11-20T02:06:30;6.60;99.90
22635;DHT22;11484;50.858;4.384;2022-11-20T02:08:58;6.70;99.90
22635;DHT22;11484;50.858;4.384;2022-11-20T02:11:24;6.70;99.90
22635;DHT22;11484;50.858;4.384;2022-11-20T02:13:50;6.70;99.90
22635;DHT22;11484;50.858;4.384;2022-11-20T02:18:43;6.70;99.90
22635;DHT22;11484;50.858;4.384;2022-11-20T02:21:24;6.80;99.90
22635;DHT22;11484;50.858;4.384;2022-11-20T02:26:41;6.80;99.90
22635;DHT22;11484;50.858;4.384;2022-11-20T02:29:07;6.80;99.90
22635;DHT22;11484;50.858;4.384;2022-11-20T02:31:40;6.90;99.90
22635;DHT22;11484;50.858;4.384;2022-11-20T02:34:06;6.90;99.90
22635;DHT22;11484;50.858;4.384;2022-11-20T02:36:34;6.90;99.90
22635;DHT22;11484;50.858;4.384;2022-11-20T02:39:01;6.80;99.90
22635;DHT22;11484;50.858;4.384;2022-11-20T02:41:31;6.80;99.90
22635;DHT22;11484;50.858;4.384;2022-11-20T02:43:57;6.70;99.90
22635;DHT22;11484;50.858;4.384;2022-11-20T02:46:23;6.70;99.90
22635;DHT22;11484;50.858;4.384;2022-11-20T02:48:48;6.60;99.90
22635;DHT22;11484;50.858;4.384;2022-11-20T02:51:14;6.50;99.90
22635;DHT22;11484;50.858;4.384;2022-11-20T02:53:40;6.50;99.90
22635;DHT22;11484;50.858;4.384;2022-11-20T02:56:06;6.60;99.90
22635;DHT22;11484;50.858;4.384;2022-11-20T02:58:31;6.50;99.90
22635;DHT22;11484;50.858;4.384;2022-11-20T03:00:57;6.60;99.90
22635;DHT22;11484;50.858;4.384;2022-11-20T03:03:23;6.60;99.90
22635;DHT22;11484;50.858;4.384;2022-11-20T03:05:49;6.50;99.90
22635;DHT22;11484;50.858;4.384;2022-11-20T03:08:15;6.60;99.90
22635;DHT22;11484;50.858;4.384;2022-11-20T03:10:41;6.50;99.90
22635;DHT22;11484;50.858;4.384;2022-11-20T03:13:06;6.40;99.90
22635;DHT22;11484;50.858;4.384;2022-11-20T03:15:32;6.50;99.90
22635;DHT22;11484;50.858;4.384;2022-11-20T03:17:58;6.60;99.90
22635;DHT22;11484;50.858;4.384;2022-11-20T03:20:24;6.60;99.90
22635;DHT22;11484;50.858;4.384;2022-11-20T03:22:49;6.60;99.90
22635;DHT22;11484;50.858;4.384;2022-11-20T03:25:15;6.60;99.90
22635;DHT22;11484;50.858;4.384;2022-11-20T03:27:41;6.60;99.90
22635;DHT22;11484;50.858;4.384;2022-11-20T03:30:07;6.60;99.90
22635;DHT22;11484;50.858;4.384;2022-11-20T03:32:33;6.60;99.90
22635;DHT22;11484;50.858;4.384;2022-11-20T03:34:59;6.60;99.90
22635;DHT22;11484;50.858;4.384;2022-11-20T03:37:24;6.60;99.90
22635;DHT22;11484;50.858;4.384;2022-11-20T03:39:50;6.60;99.90
22635;DHT22;11484;50.858;4.384;2022-11-20T03:42:16;6.70;99.90
22635;DHT22;11484;50.858;4.384;2022-11-20T03:45:00;6.70;99.90
22635;DHT22;11484;50.858;4.384;2022-11-20T03:47:26;6.60;99.90
22635;DHT22;11484;50.858;4.384;2022-11-20T03:49:51;6.60;99.90
22635;DHT22;11484;50.858;4.384;2022-11-20T03:52:17;6.70;99.90
22635;DHT22;11484;50.858;4.384;2022-11-20T03:54:44;6.80;99.90
22635;DHT22;11484;50.858;4.384;2022-11-20T03:57:10;6.80;99.90
22635;DHT22;11484;50.858;4.384;2022-11-20T03:59:35;6.80;99.90
22635;DHT22;11484;50.858;4.384;2022-11-20T04:02:01;6.90;99.90
22635;DHT22;11484;50.858;4.384;2022-11-20T04:04:28;6.90;99.90
22635;DHT22;11484;50.858;4.384;2022-11-20T04:06:55;6.90;99.90
22635;DHT22;11484;50.858;4.384;2022-11-20T04:09:20;6.90;99.90
22635;DHT22;11484;50.858;4.384;2022-11-20T04:11:46;7.00;99.90
22635;DHT22;11484;50.858;4.384;2022-11-20T04:14:14;7.00;99.90
22635;DHT22;11484;50.858;4.384;2022-11-20T04:16:40;7.10;99.90
22635;DHT22;11484;50.858;4.384;2022-11-20T04:19:10;7.00;99.90
22635;DHT22;11484;50.858;4.384;2022-11-20T04:21:36;7.10;99.90
22635;DHT22;11484;50.858;4.384;2022-11-20T04:24:02;7.10;99.90
22635;DHT22;11484;50.858;4.384;2022-11-20T04:26:29;7.10;99.90
22635;DHT22;11484;50.858;4.384;2022-11-20T04:28:55;7.10;99.90
22635;DHT22;11484;50.858;4.384;2022-11-20T04:31:25;7.10;99.90
22635;DHT22;11484;50.858;4.384;2022-11-20T04:33:51;7.20;99.90
22635;DHT22;11484;50.858;4.384;2022-11-20T04:36:23;7.20;99.90
22635;DHT22;11484;50.858;4.384;2022-11-20T04:38:54;7.20;99.90
22635;DHT22;11484;50.858;4.384;2022-11-20T04:41:22;7.20;99.90
22635;DHT22;11484;50.858;4.384;2022-11-20T04:43:53;7.30;99.90
22635;DHT22;11484;50.858;4.384;2022-11-20T04:46:20;7.30;99.90
22635;DHT22;11484;50.858;4.384;2022-11-20T04:48:47;7.30;99.90
22635;DHT22;11484;50.858;4.384;2022-11-20T04:51:13;7.30;99.90
22635;DHT22;11484;50.858;4.384;2022-11-20T04:53:39;7.30;99.90
22635;DHT22;11484;50.858;4.384;2022-11-20T04:56:07;7.40;99.90
22635;DHT22;11484;50.858;4.384;2022-11-20T04:58:34;7.40;99.90
22635;DHT22;11484;50.858;4.384;2022-11-20T05:01:05;7.40;99.90
22635;DHT22;11484;50.858;4.384;2022-11-20T05:03:30;7.50;99.90
22635;DHT22;11484;50.858;4.384;2022-11-20T05:05:59;7.50;99.90
22635;DHT22;11484;50.858;4.384;2022-11-20T05:08:25;7.40;99.90
22635;DHT22;11484;50.858;4.384;2022-11-20T05:10:50;7.50;99.90
22635;DHT22;11484;50.858;4.384;2022-11-20T05:13:16;7.60;99.90
22635;DHT22;11484;50.858;4.384;2022-11-20T05:15:42;7.60;99.90
22635;DHT22;11484;50.858;4.384;2022-11-20T05:18:08;7.60;99.90
22635;DHT22;11484;50.858;4.384;2022-11-20T05:20:33;7.60;99.90
22635;DHT22;11484;50.858;4.384;2022-11-20T05:23:02;7.60;99.90
22635;DHT22;11484;50.858;4.384;2022-11-20T05:25:28;7.60;99.90
22635;DHT22;11484;50.858;4.384;2022-11-20T05:27:55;7.50;99.90
22635;DHT22;11484;50.858;4.384;2022-11-20T05:30:20;7.50;99.90
22635;DHT22;11484;50.858;4.384;2022-11-20T05:32:47;7.50;99.90
22635;DHT22;11484;50.858;4.384;2022-11-20T05:35:19;7.50;99.90
22635;DHT22;11484;50.858;4.384;2022-11-20T05:37:45;7.50;99.90
22635;DHT22;11484;50.858;4.384;2022-11-20T05:40:11;7.50;99.90
22635;DHT22;11484;50.858;4.384;2022-11-20T05:42:37;7.50;99.90
22635;DHT22;11484;50.858;4.384;2022-11-20T05:45:05;7.60;99.90
22635;DHT22;11484;50.858;4.384;2022-11-20T05:47:33;7.70;99.90
22635;DHT22;11484;50.858;4.384;2022-11-20T05:50:06;7.80;99.90
22635;DHT22;11484;50.858;4.384;2022-11-20T05:52:34;7.80;99.90
22635;DHT22;11484;50.858;4.384;2022-11-20T05:55:00;7.70;99.90
22635;DHT22;11484;50.858;4.384;2022-11-20T05:57:26;7.60;99.90
22635;DHT22;11484;50.858;4.384;2022-11-20T05:59:52;7.50;99.90
22635;DHT22;11484;50.858;4.384;2022-11-20T06:02:18;7.40;99.90
22635;DHT22;11484;50.858;4.384;2022-11-20T06:04:46;7.20;99.90
22635;DHT22;11484;50.858;4.384;2022-11-20T06:07:13;7.20;99.90
22635;DHT22;11484;50.858;4.384;2022-11-20T06:09:39;7.30;99.90
22635;DHT22;11484;50.858;4.384;2022-11-20T06:12:05;7.30;99.90
22635;DHT22;11484;50.858;4.384;2022-11-20T06:14:32;7.20;99.90
22635;DHT22;11484;50.858;4.384;2022-11-20T06:16:59;7.10;99.90
22635;DHT22;11484;50.858;4.384;2022-11-20T06:19:25;7.00;99.90
22635;DHT22;11484;50.858;4.384;2022-11-20T06:21:51;7.10;99.90
22635;DHT22;11484;50.858;4.384;2022-11-20T06:24:17;7.00;99.90
22635;DHT22;11484;50.858;4.384;2022-11-20T06:26:43;7.10;99.90
22635;DHT22;11484;50.858;4.384;2022-11-20T06:29:09;7.10;99.90
22635;DHT22;11484;50.858;4.384;2022-11-20T06:31:35;7.20;99.90
22635;DHT22;11484;50.858;4.384;2022-11-20T06:34:04;7.10;99.90
22635;DHT22;11484;50.858;4.384;2022-11-20T06:36:32;7.10;99.90
22635;DHT22;11484;50.858;4.384;2022-11-20T06:38:58;7.00;99.90
22635;DHT22;11484;50.858;4.384;2022-11-20T06:41:25;7.00;99.90
22635;DHT22;11484;50.858;4.384;2022-11-20T06:43:53;7.10;99.90
22635;DHT22;11484;50.858;4.384;2022-11-20T06:46:19;7.20;99.90
22635;DHT22;11484;50.858;4.384;2022-11-20T06:48:47;7.20;99.90
22635;DHT22;11484;50.858;4.384;2022-11-20T06:51:13;7.20;99.90
22635;DHT22;11484;50.858;4.384;2022-11-20T06:53:39;7.20;99.90
22635;DHT22;11484;50.858;4.384;2022-11-20T06:56:06;7.30;99.90
22635;DHT22;11484;50.858;4.384;2022-11-20T06:58:34;7.20;99.90
22635;DHT22;11484;50.858;4.384;2022-11-20T07:01:03;7.10;99.90
22635;DHT22;11484;50.858;4.384;2022-11-20T07:03:30;7.20;99.90
22635;DHT22;11484;50.858;4.384;2022-11-20T07:05:58;7.20;99.90
22635;DHT22;11484;50.858;4.384;2022-11-20T07:08:26;7.10;99.90
22635;DHT22;11484;50.858;4.384;2022-11-20T07:11:01;7.20;99.90
22635;DHT22;11484;50.858;4.384;2022-11-20T07:13:28;7.20;99.90
22635;DHT22;11484;50.858;4.384;2022-11-20T07:15:54;7.20;99.90
22635;DHT22;11484;50.858;4.384;2022-11-20T07:18:21;7.30;99.90
22635;DHT22;11484;50.858;4.384;2022-11-20T07:20:48;7.20;99.90
22635;DHT22;11484;50.858;4.384;2022-11-20T07:23:14;7.30;99.90
22635;DHT22;11484;50.858;4.384;2022-11-20T07:25:42;7.30;99.90
22635;DHT22;11484;50.858;4.384;2022-11-20T07:28:08;7.30;99.90
22635;DHT22;11484;50.858;4.384;2022-11-20T07:30:37;7.40;99.90
22635;DHT22;11484;50.858;4.384;2022-11-20T07:33:05;7.40;99.90
22635;DHT22;11484;50.858;4.384;2022-11-20T07:35:36;7.60;99.90
22635;DHT22;11484;50.858;4.384;2022-11-20T07:38:01;7.60;99.90
22635;DHT22;11484;50.858;4.384;2022-11-20T07:40:27;7.70;99.90
22635;DHT22;11484;50.858;4.384;2022-11-20T07:42:54;7.80;99.90
22635;DHT22;11484;50.858;4.384;2022-11-20T07:45:22;7.90;99.90
22635;DHT22;11484;50.858;4.384;2022-11-20T07:47:49;8.00;99.90
22635;DHT22;11484;50.858;4.384;2022-11-20T07:50:15;7.90;99.90
22635;DHT22;11484;50.858;4.384;2022-11-20T07:52:42;7.90;99.90
22635;DHT22;11484;50.858;4.384;2022-11-20T07:55:09;7.80;99.90
22635;DHT22;11484;50.858;4.384;2022-11-20T07:57:35;7.80;99.90
22635;DHT22;11484;50.858;4.384;2022-11-20T08:00:01;7.80;99.90
22635;DHT22;11484;50.858;4.384;2022-11-20T08:02:28;7.80;99.90
22635;DHT22;11484;50.858;4.384;2022-11-20T08:04:56;7.70;99.90
22635;DHT22;11484;50.858;4.384;2022-11-20T08:07:21;7.70;99.90
22635;DHT22;11484;50.858;4.384;2022-11-20T08:09:47;7.70;99.90
22635;DHT22;11484;50.858;4.384;2022-11-20T08:12:20;7.70;99.90
22635;DHT22;11484;50.858;4.384;2022-11-20T08:15:05;7.80;99.90
22635;DHT22;11484;50.858;4.384;2022-11-20T08:17:32;8.00;99.90
22635;DHT22;11484;50.858;4.384;2022-11-20T08:19:58;8.00;99.90
22635;DHT22;11484;50.858;4.384;2022-11-20T08:22:24;8.00;99.90
22635;DHT22;11484;50.858;4.384;2022-11-20T08:24:50;8.10;99.90
22635;DHT22;11484;50.858;4.384;2022-11-20T08:27:16;8.20;99.90
22635;DHT22;11484;50.858;4.384;2022-11-20T08:29:42;8.30;99.90
22635;DHT22;11484;50.858;4.384;2022-11-20T08:32:08;8.30;99.90
22635;DHT22;11484;50.858;4.384;2022-11-20T08:34:33;8.30;99.90
22635;DHT22;11484;50.858;4.384;2022-11-20T08:37:02;8.40;99.90
22635;DHT22;11484;50.858;4.384;2022-11-20T08:39:28;8.40;99.90
22635;DHT22;11484;50.858;4.384;2022-11-20T08:41:53;8.40;99.90
22635;DHT22;11484;50.858;4.384;2022-11-20T08:44:19;8.50;99.90
22635;DHT22;11484;50.858;4.384;2022-11-20T08:46:45;8.50;99.90
22635;DHT22;11484;50.858;4.384;2022-11-20T08:49:13;8.60;99.90
22635;DHT22;11484;50.858;4.384;2022-11-20T08:51:40;8.60;99.90
22635;DHT22;11484;50.858;4.384;2022-11-20T08:54:06;8.70;99.90
22635;DHT22;11484;50.858;4.384;2022-11-20T08:56:34;8.70;99.90
22635;DHT22;11484;50.858;4.384;2022-11-20T08:59:01;8.70;99.90
22635;DHT22;11484;50.858;4.384;2022-11-20T09:01:29;8.70;99.90
22635;DHT22;11484;50.858;4.384;2022-11-20T09:03:56;8.70;99.90
22635;DHT22;11484;50.858;4.384;2022-11-20T09:06:28;8.70;99.90
22635;DHT22;11484;50.858;4.384;2022-11-20T09:08:55;8.80;99.90
22635;DHT22;11484;50.858;4.384;2022-11-20T09:11:23;8.90;99.90
22635;DHT22;11484;50.858;4.384;2022-11-20T09:13:49;8.90;99.90
22635;DHT22;11484;50.858;4.384;2022-11-20T09:16:15;8.90;99.90
22635;DHT22;11484;50.858;4.384;2022-11-20T09:18:41;8.80;99.90
22635;DHT22;11484;50.858;4.384;2022-11-20T09:21:12;8.80;99.90
22635;DHT22;11484;50.858;4.384;2022-11-20T09:23:38;8.90;99.90
22635;DHT22;11484;50.858;4.384;2022-11-20T09:26:05;9.00;99.90
22635;DHT22;11484;50.858;4.384;2022-11-20T09:28:31;9.10;99.90
22635;DHT22;11484;50.858;4.384;2022-11-20T09:30:58;9.20;99.90
22635;DHT22;11484;50.858;4.384;2022-11-20T09:33:24;9.30;99.90
22635;DHT22;11484;50.858;4.384;2022-11-20T09:35:50;9.40;99.90
22635;DHT22;11484;50.858;4.384;2022-11-20T09:38:16;9.40;99.90
22635;DHT22;11484;50.858;4.384;2022-11-20T09:40:56;9.50;99.90
22635;DHT22;11484;50.858;4.384;2022-11-20T09:56:03;9.80;99.90
22635;DHT22;11484;50.858;4.384;2022-11-20T09:58:43;9.90;99.90
22635;DHT22;11484;50.858;4.384;2022-11-20T10:01:23;9.90;99.90
22635;DHT22;11484;50.858;4.384;2022-11-20T10:06:21;9.80;99.90
22635;DHT22;11484;50.858;4.384;2022-11-20T10:08:58;9.80;99.90
22635;DHT22;11484;50.858;4.384;2022-11-20T10:19:57;10.00;99.90
22635;DHT22;11484;50.858;4.384;2022-11-20T10:25:39;10.20;99.90
22635;DHT22;11484;50.858;4.384;2022-11-20T10:28:40;10.30;99.90
22635;DHT22;11484;50.858;4.384;2022-11-20T10:31:24;10.40;99.90
22635;DHT22;11484;50.858;4.384;2022-11-20T10:33:51;10.40;99.90
22635;DHT22;11484;50.858;4.384;2022-11-20T10:36:23;10.50;99.90
22635;DHT22;11484;50.858;4.384;2022-11-20T10:39:01;10.60;99.90
22635;DHT22;11484;50.858;4.384;2022-11-20T10:41:37;10.50;99.90
22635;DHT22;11484;50.858;4.384;2022-11-20T10:44:27;10.60;99.90
22635;DHT22;11484;50.858;4.384;2022-11-20T10:47:17;10.70;99.90
22635;DHT22;11484;50.858;4.384;2022-11-20T10:49:46;10.80;99.90
22635;DHT22;11484;50.858;4.384;2022-11-20T10:58:16;10.60;99.90
22635;DHT22;11484;50.858;4.384;2022-11-20T11:00:45;10.60;99.90
22635;DHT22;11484;50.858;4.384;2022-11-20T11:03:24;10.60;99.90
22635;DHT22;11484;50.858;4.384;2022-11-20T11:05:56;10.50;99.90
22635;DHT22;11484;50.858;4.384;2022-11-20T11:08:26;10.50;99.90
22635;DHT22;11484;50.858;4.384;2022-11-20T11:11:00;10.50;99.90
22635;DHT22;11484;50.858;4.384;2022-11-20T11:13:30;10.60;99.90
22635;DHT22;11484;50.858;4.384;2022-11-20T11:15:57;10.80;99.90
22635;DHT22;11484;50.858;4.384;2022-11-20T11:20:54;10.60;99.90
22635;DHT22;11484;50.858;4.384;2022-11-20T11:23:39;10.70;99.90
22635;DHT22;11484;50.858;4.384;2022-11-20T11:26:07;10.60;99.90
22635;DHT22;11484;50.858;4.384;2022-11-20T11:29:02;10.50;99.90
22635;DHT22;11484;50.858;4.384;2022-11-20T11:31:34;10.50;99.90
22635;DHT22;11484;50.858;4.384;2022-11-20T11:34:12;10.70;99.90
22635;DHT22;11484;50.858;4.384;2022-11-20T11:36:38;10.70;99.90
22635;DHT22;11484;50.858;4.384;2022-11-20T11:39:05;10.70;99.90
22635;DHT22;11484;50.858;4.384;2022-11-20T11:41:33;10.70;99.90
22635;DHT22;11484;50.858;4.384;2022-11-20T11:44:31;10.60;99.90
22635;DHT22;11484;50.858;4.384;2022-11-20T11:47:43;10.50;99.90
22635;DHT22;11484;50.858;4.384;2022-11-20T11:55:29;10.50;99.90
22635;DHT22;11484;50.858;4.384;2022-11-20T11:58:11;10.50;99.90
22635;DHT22;11484;50.858;4.384;2022-11-20T12:00:49;10.50;99.90
22635;DHT22;11484;50.858;4.384;2022-11-20T12:03:22;10.70;99.90
22635;DHT22;11484;50.858;4.384;2022-11-20T12:05:56;10.60;99.90
22635;DHT22;11484;50.858;4.384;2022-11-20T12:13:59;10.30;99.90
22635;DHT22;11484;50.858;4.384;2022-11-20T12:16:32;10.30;99.90
22635;DHT22;11484;50.858;4.384;2022-11-20T12:18:59;10.10;99.90
22635;DHT22;11484;50.858;4.384;2022-11-20T12:21:44;10.00;99.90
22635;DHT22;11484;50.858;4.384;2022-11-20T12:24:24;9.90;99.90
22635;DHT22;11484;50.858;4.384;2022-11-20T12:30:31;9.70;99.90
22635;DHT22;11484;50.858;4.384;2022-11-20T12:56:03;9.80;99.90
22635;DHT22;11484;50.858;4.384;2022-11-20T13:06:44;9.80;99.90
22635;DHT22;11484;50.858;4.384;2022-11-20T13:09:13;9.90;99.90
22635;DHT22;11484;50.858;4.384;2022-11-20T13:12:08;9.80;99.90
22635;DHT22;11484;50.858;4.384;2022-11-20T13:17:54;9.80;99.90
22635;DHT22;11484;50.858;4.384;2022-11-20T13:20:21;9.70;99.90
22635;DHT22;11484;50.858;4.384;2022-11-20T13:22:51;9.60;99.90
22635;DHT22;11484;50.858;4.384;2022-11-20T13:27:50;9.50;99.90
22635;DHT22;11484;50.858;4.384;2022-11-20T13:30:27;9.50;99.90
22635;DHT22;11484;50.858;4.384;2022-11-20T13:32:55;9.40;99.90
22635;DHT22;11484;50.858;4.384;2022-11-20T13:35:36;9.40;99.90
22635;DHT22;11484;50.858;4.384;2022-11-20T13:38:11;9.30;99.90
22635;DHT22;11484;50.858;4.384;2022-11-20T13:40:50;9.30;99.90
22635;DHT22;11484;50.858;4.384;2022-11-20T13:43:37;9.30;99.90
22635;DHT22;11484;50.858;4.384;2022-11-20T13:46:06;9.30;99.90
22635;DHT22;11484;50.858;4.384;2022-11-20T13:48:39;9.20;99.90
22635;DHT22;11484;50.858;4.384;2022-11-20T14:00:32;9.30;99.90
22635;DHT22;11484;50.858;4.384;2022-11-20T14:03:09;9.40;99.90
22635;DHT22;11484;50.858;4.384;2022-11-20T14:05:51;9.40;99.90
22635;DHT22;11484;50.858;4.384;2022-11-20T14:08:37;9.40;99.90
22635;DHT22;11484;50.858;4.384;2022-11-20T14:11:26;9.40;99.90
22635;DHT22;11484;50.858;4.384;2022-11-20T14:13:55;9.40;99.90
22635;DHT22;11484;50.858;4.384;2022-11-20T14:16:23;9.40;99.90
22635;DHT22;11484;50.858;4.384;2022-11-20T14:18:53;9.30;99.90
22635;DHT22;11484;50.858;4.384;2022-11-20T14:21:24;9.30;99.90
22635;DHT22;11484;50.858;4.384;2022-11-20T14:23:53;9.30;99.90
22635;DHT22;11484;50.858;4.384;2022-11-20T14:26:21;9.30;99.90
22635;DHT22;11484;50.858;4.384;2022-11-20T14:28:50;9.30;99.90
22635;DHT22;11484;50.858;4.384;2022-11-20T14:31:26;9.40;99.90
22635;DHT22;11484;50.858;4.384;2022-11-20T14:33:54;9.50;99.90
22635;DHT22;11484;50.858;4.384;2022-11-20T14:36:22;9.50;99.90
22635;DHT22;11484;50.858;4.384;2022-11-20T14:38:49;9.50;99.90
22635;DHT22;11484;50.858;4.384;2022-11-20T14:41:23;9.40;99.90
22635;DHT22;11484;50.858;4.384;2022-11-20T14:43:59;9.50;99.90
22635;DHT22;11484;50.858;4.384;2022-11-20T14:46:26;9.50;99.90
22635;DHT22;11484;50.858;4.384;2022-11-20T14:48:57;9.50;99.90
22635;DHT22;11484;50.858;4.384;2022-11-20T14:51:39;9.50;99.90
22635;DHT22;11484;50.858;4.384;2022-11-20T14:54:19;9.60;99.90
22635;DHT22;11484;50.858;4.384;2022-11-20T14:57:01;9.70;99.90
22635;DHT22;11484;50.858;4.384;2022-11-20T14:59:32;9.80;99.90
22635;DHT22;11484;50.858;4.384;2022-11-20T15:02:06;9.80;99.90
22635;DHT22;11484;50.858;4.384;2022-11-20T15:04:51;9.90;99.90
22635;DHT22;11484;50.858;4.384;2022-11-20T15:07:29;10.00;99.90
22635;DHT22;11484;50.858;4.384;2022-11-20T15:10:06;10.00;99.90
22635;DHT22;11484;50.858;4.384;2022-11-20T15:12:34;10.10;99.90
22635;DHT22;11484;50.858;4.384;2022-11-20T15:15:02;10.10;99.90
22635;DHT22;11484;50.858;4.384;2022-11-20T15:17:32;10.10;99.90
22635;DHT22;11484;50.858;4.384;2022-11-20T15:20:01;10.10;99.90
22635;DHT22;11484;50.858;4.384;2022-11-20T15:22:27;10.10;99.90
22635;DHT22;11484;50.858;4.384;2022-11-20T15:24:53;10.20;99.90
22635;DHT22;11484;50.858;4.384;2022-11-20T15:27:19;10.30;99.90
22635;DHT22;11484;50.858;4.384;2022-11-20T15:29:45;10.30;99.90
22635;DHT22;11484;50.858;4.384;2022-11-20T15:32:11;10.30;99.90
22635;DHT22;11484;50.858;4.384;2022-11-20T15:34:36;10.30;99.90
22635;DHT22;11484;50.858;4.384;2022-11-20T15:37:02;10.30;99.90
22635;DHT22;11484;50.858;4.384;2022-11-20T15:39:28;10.40;99.90
22635;DHT22;11484;50.858;4.384;2022-11-20T15:41:54;10.40;99.90
22635;DHT22;11484;50.858;4.384;2022-11-20T15:44:19;10.40;99.90
22635;DHT22;11484;50.858;4.384;2022-11-20T15:46:47;10.40;99.90
22635;DHT22;11484;50.858;4.384;2022-11-20T15:49:15;10.50;99.90
22635;DHT22;11484;50.858;4.384;2022-11-20T15:51:46;10.50;99.90
22635;DHT22;11484;50.858;4.384;2022-11-20T15:54:15;10.50;99.90
22635;DHT22;11484;50.858;4.384;2022-11-20T15:56:42;10.40;99.90
22635;DHT22;11484;50.858;4.384;2022-11-20T15:59:09;10.50;99.90
22635;DHT22;11484;50.858;4.384;2022-11-20T16:01:34;10.60;99.90
22635;DHT22;11484;50.858;4.384;2022-11-20T16:04:00;10.50;99.90
22635;DHT22;11484;50.858;4.384;2022-11-20T16:06:26;10.60;99.90
22635;DHT22;11484;50.858;4.384;2022-11-20T16:08:52;10.60;99.90
22635;DHT22;11484;50.858;4.384;2022-11-20T16:11:21;10.60;99.90
22635;DHT22;11484;50.858;4.384;2022-11-20T16:13:46;10.60;99.90
22635;DHT22;11484;50.858;4.384;2022-11-20T16:16:38;10.60;99.90
22635;DHT22;11484;50.858;4.384;2022-11-20T16:19:06;10.60;99.90
22635;DHT22;11484;50.858;4.384;2022-11-20T16:21:31;10.60;99.90
22635;DHT22;11484;50.858;4.384;2022-11-20T16:24:05;10.50;99.90
22635;DHT22;11484;50.858;4.384;2022-11-20T16:26:32;10.40;99.90
22635;DHT22;11484;50.858;4.384;2022-11-20T16:29:03;10.40;99.90
22635;DHT22;11484;50.858;4.384;2022-11-20T16:31:31;10.40;99.90
22635;DHT22;11484;50.858;4.384;2022-11-20T16:34:00;10.40;99.90
22635;DHT22;11484;50.858;4.384;2022-11-20T16:36:27;10.30;99.90
22635;DHT22;11484;50.858;4.384;2022-11-20T16:38:55;10.30;99.90
22635;DHT22;11484;50.858;4.384;2022-11-20T16:41:22;10.20;99.90
22635;DHT22;11484;50.858;4.384;2022-11-20T16:43:57;10.30;99.90
22635;DHT22;11484;50.858;4.384;2022-11-20T16:46:29;10.40;99.90
22635;DHT22;11484;50.858;4.384;2022-11-20T16:49:05;10.30;99.90
22635;DHT22;11484;50.858;4.384;2022-11-20T16:51:35;10.40;99.90
22635;DHT22;11484;50.858;4.384;2022-11-20T16:54:03;10.40;99.90
22635;DHT22;11484;50.858;4.384;2022-11-20T16:56:29;10.40;99.90
22635;DHT22;11484;50.858;4.384;2022-11-20T16:58:57;10.40;99.90
22635;DHT22;11484;50.858;4.384;2022-11-20T17:01:25;10.30;99.90
22635;DHT22;11484;50.858;4.384;2022-11-20T17:03:59;10.30;99.90
22635;DHT22;11484;50.858;4.384;2022-11-20T17:06:32;10.30;99.90
22635;DHT22;11484;50.858;4.384;2022-11-20T17:08:58;10.30;99.90
22635;DHT22;11484;50.858;4.384;2022-11-20T17:11:30;10.30;99.90
22635;DHT22;11484;50.858;4.384;2022-11-20T17:13:58;10.20;99.90
22635;DHT22;11484;50.858;4.384;2022-11-20T17:16:52;10.30;99.90
22635;DHT22;11484;50.858;4.384;2022-11-20T17:19:24;10.30;99.90
22635;DHT22;11484;50.858;4.384;2022-11-20T17:21:50;10.30;99.90
22635;DHT22;11484;50.858;4.384;2022-11-20T17:24:16;10.30;99.90
22635;DHT22;11484;50.858;4.384;2022-11-20T17:26:43;10.40;99.90
22635;DHT22;11484;50.858;4.384;2022-11-20T17:29:14;10.50;99.90
22635;DHT22;11484;50.858;4.384;2022-11-20T17:31:42;10.60;99.90
22635;DHT22;11484;50.858;4.384;2022-11-20T17:34:11;10.70;99.90
22635;DHT22;11484;50.858;4.384;2022-11-20T17:36:38;10.70;99.90
22635;DHT22;11484;50.858;4.384;2022-11-20T17:39:19;10.50;99.90
22635;DHT22;11484;50.858;4.384;2022-11-20T17:41:45;10.40;99.90
22635;DHT22;11484;50.858;4.384;2022-11-20T17:44:31;10.20;99.90